Time;durP1;ratioP1;P1;durP2;ratioP2;P2;SDS_P1;SDS_P2;PMS_P1;PMS_P2;Temp;Humidity;BMP_temperature;BMP_pressure;BME280_temperature;BME280_humidity;BME280_pressure;Samples;Min_cycle;Max_cycle;Signal;HPM_P1;HPM_P2
2022/11/07 00:00:08;;;;;;;3.30;2.80;;;7.00;96.30;;;;;;5014218;28;20195;-76
2022/11/07 00:02:34;;;;;;;4.23;3.10;;;7.00;96.30;;;;;;5015408;28;20639;-76
2022/11/07 00:05:01;;;;;;;2.93;2.63;;;7.00;96.30;;;;;;5015356;28;20558;-76
2022/11/07 00:07:27;;;;;;;2.70;2.10;;;7.00;96.30;;;;;;5014615;28;20201;-76
2022/11/07 00:09:52;;;;;;;3.83;2.73;;;7.00;96.30;;;;;;5014137;28;20838;-76
2022/11/07 00:12:18;;;;;;;2.47;2.10;;;7.00;96.30;;;;;;5015220;28;20751;-75
2022/11/07 00:14:43;;;;;;;3.77;3.37;;;7.10;96.30;;;;;;5015246;28;20173;-76
2022/11/07 00:17:09;;;;;;;2.93;2.50;;;7.20;96.30;;;;;;5014626;28;20578;-76
2022/11/07 00:19:34;;;;;;;3.10;2.60;;;7.20;96.30;;;;;;5015250;28;20235;-75
2022/11/07 00:22:00;;;;;;;3.83;3.03;;;7.20;96.30;;;;;;5015055;28;20201;-75
2022/11/07 00:24:25;;;;;;;4.20;2.60;;;7.30;96.30;;;;;;5015068;28;20201;-75
2022/11/07 00:26:51;;;;;;;4.90;3.00;;;7.40;96.30;;;;;;5014358;28;20252;-75
2022/11/07 00:29:19;;;;;;;3.10;2.60;;;7.50;96.30;;;;;;5013748;28;20741;-75
2022/11/07 00:31:45;;;;;;;2.80;2.50;;;7.50;96.30;;;;;;5014978;28;20204;-75
2022/11/07 00:34:11;;;;;;;4.33;2.70;;;7.50;96.30;;;;;;5013587;28;20412;-75
2022/11/07 00:36:37;;;;;;;4.00;3.30;;;7.40;96.30;;;;;;5014665;28;20470;-75
2022/11/07 00:39:04;;;;;;;4.10;3.07;;;7.30;96.30;;;;;;5014464;28;20189;-75
2022/11/07 00:41:29;;;;;;;3.37;2.83;;;7.10;96.30;;;;;;5014381;28;20203;-75
2022/11/07 00:43:55;;;;;;;3.50;2.67;;;7.10;96.30;;;;;;5014704;28;20412;-75
2022/11/07 00:46:21;;;;;;;3.13;2.80;;;7.00;96.30;;;;;;5016484;28;20181;-74
2022/11/07 00:48:47;;;;;;;3.63;3.00;;;7.00;96.30;;;;;;5015546;28;20576;-74
2022/11/07 00:51:23;;;;;;;3.70;2.77;;;6.90;96.30;;;;;;5016706;28;20546;-74
2022/11/07 00:53:49;;;;;;;3.57;3.00;;;6.90;96.30;;;;;;5017861;28;20318;-74
2022/11/07 00:56:18;;;;;;;3.90;3.07;;;6.80;96.30;;;;;;5019223;28;20907;-74
2022/11/07 00:58:44;;;;;;;3.57;3.27;;;7.00;96.30;;;;;;5019121;28;20428;-74
2022/11/07 05:01:54;;;;;;;2.87;2.43;;;6.20;96.30;;;;;;5183039;23;20504;-75
2022/11/07 05:04:20;;;;;;;2.57;2.13;;;6.30;96.30;;;;;;4898780;29;20500;-74
2022/11/07 05:06:45;;;;;;;5.70;2.67;;;6.30;96.30;;;;;;4898116;29;20182;-74
2022/11/07 05:09:15;;;;;;;2.40;2.17;;;6.40;96.30;;;;;;4898748;29;20220;-75
2022/11/07 05:11:41;;;;;;;2.30;2.10;;;6.30;96.30;;;;;;4897351;29;20291;-74
2022/11/07 05:14:07;;;;;;;9.23;8.33;;;6.20;96.30;;;;;;4823036;29;20623;-74
2022/11/07 05:16:33;;;;;;;9.77;2.90;;;6.30;96.30;;;;;;4896874;29;20186;-74
2022/11/07 05:18:59;;;;;;;4.40;2.77;;;6.30;96.30;;;;;;4877766;29;20578;-74
2022/11/07 05:21:24;;;;;;;2.13;1.93;;;6.30;96.30;;;;;;4864884;29;20974;-74
2022/11/07 05:23:50;;;;;;;18.43;10.10;;;6.20;96.30;;;;;;4865844;29;20174;-74
2022/11/07 05:26:16;;;;;;;2.33;1.90;;;6.10;96.30;;;;;;4889015;29;20182;-74
2022/11/07 05:28:42;;;;;;;5.40;2.13;;;6.00;96.30;;;;;;4885432;29;20670;-74
2022/11/07 05:53:31;;;;;;;1.60;1.50;;;6.10;96.30;;;;;;4945582;23;20488;-73
2022/11/07 05:55:57;;;;;;;3.10;1.70;;;6.20;96.30;;;;;;4878720;29;20454;-74
2022/11/07 05:58:23;;;;;;;2.93;1.80;;;6.20;96.30;;;;;;4894451;29;20413;-74
2022/11/07 06:00:48;;;;;;;2.33;1.50;;;6.30;96.30;;;;;;4903712;29;20696;-74
2022/11/07 06:03:14;;;;;;;2.60;1.30;;;6.20;96.30;;;;;;4914814;29;20427;-74
2022/11/07 06:05:41;;;;;;;3.90;1.43;;;6.20;96.30;;;;;;4903399;29;20177;-74
2022/11/07 06:08:10;;;;;;;2.03;1.30;;;6.20;96.30;;;;;;4906383;29;20452;-74
2022/11/07 06:10:37;;;;;;;2.73;1.87;;;6.40;96.30;;;;;;4907488;29;20793;-74
2022/11/07 06:13:06;;;;;;;3.97;2.97;;;6.40;96.30;;;;;;4906319;29;20473;-74
2022/11/07 06:15:34;;;;;;;2.30;1.80;;;6.40;96.30;;;;;;4906252;29;20483;-74
2022/11/07 06:18:01;;;;;;;4.77;4.27;;;6.40;96.30;;;;;;4907476;29;20417;-73
2022/11/07 06:20:27;;;;;;;6.60;4.93;;;6.40;96.30;;;;;;4907520;29;20484;-74
2022/11/07 06:22:59;;;;;;;6.70;6.00;;;6.60;96.30;;;;;;4907340;29;20499;-74
2022/11/07 06:25:26;;;;;;;14.23;11.30;;;6.70;96.30;;;;;;4889922;29;20424;-74
2022/11/07 06:27:52;;;;;;;3.27;2.97;;;6.80;96.30;;;;;;4886829;29;20480;-74
2022/11/07 06:30:18;;;;;;;3.43;3.13;;;6.90;96.30;;;;;;4916080;29;20412;-74
2022/11/07 06:32:44;;;;;;;4.00;2.50;;;7.00;96.30;;;;;;4916123;29;20552;-74
2022/11/07 06:35:10;;;;;;;2.10;1.40;;;7.10;96.30;;;;;;4909867;29;20181;-73
2022/11/07 06:37:36;;;;;;;6.43;4.60;;;7.40;96.30;;;;;;4912789;29;20420;-74
2022/11/07 06:40:02;;;;;;;4.10;2.60;;;7.50;96.30;;;;;;4915893;29;20412;-74
2022/11/07 06:42:28;;;;;;;1.53;1.30;;;7.50;96.30;;;;;;4916750;29;20204;-73
2022/11/07 06:44:53;;;;;;;3.50;1.50;;;7.50;96.30;;;;;;4935130;29;20467;-73
2022/11/07 06:47:19;;;;;;;1.40;1.13;;;7.50;96.30;;;;;;4931546;29;20282;-73
2022/11/07 06:49:44;;;;;;;1.43;1.20;;;7.40;96.30;;;;;;4915901;29;20252;-73
2022/11/07 06:52:10;;;;;;;1.57;0.90;;;7.30;96.30;;;;;;4915843;29;20203;-72
2022/11/07 06:54:35;;;;;;;2.63;0.90;;;7.30;96.30;;;;;;4917829;29;20602;-73
2022/11/07 06:57:01;;;;;;;2.50;1.07;;;7.30;96.30;;;;;;4917676;29;20278;-73
2022/11/07 06:59:26;;;;;;;4.50;2.30;;;7.30;96.30;;;;;;4934855;29;20175;-72
2022/11/07 07:01:52;;;;;;;1.20;0.70;;;7.30;96.30;;;;;;4934766;29;20279;-73
2022/11/07 07:04:17;;;;;;;2.13;1.03;;;7.40;96.30;;;;;;4934647;29;20515;-73
2022/11/07 07:06:44;;;;;;;1.10;0.90;;;7.50;96.30;;;;;;4934712;29;20250;-74
2022/11/07 07:09:09;;;;;;;2.10;1.00;;;7.60;96.30;;;;;;4934738;29;20199;-73
2022/11/07 07:11:38;;;;;;;1.40;1.10;;;7.70;96.30;;;;;;4934634;29;20986;-73
2022/11/07 07:14:04;;;;;;;1.93;0.93;;;7.70;96.30;;;;;;4934796;29;20171;-73
2022/11/07 07:16:30;;;;;;;1.70;1.33;;;7.80;96.30;;;;;;4934518;29;20414;-73
2022/11/07 07:18:56;;;;;;;2.80;1.30;;;7.80;96.30;;;;;;4934415;29;20591;-73
2022/11/07 07:21:21;;;;;;;1.53;1.07;;;7.80;96.30;;;;;;4917442;29;20226;-74
2022/11/07 07:23:47;;;;;;;1.10;0.90;;;7.90;96.30;;;;;;4917556;29;20187;-73
2022/11/07 07:26:14;;;;;;;2.03;0.93;;;8.00;96.30;;;;;;4934827;29;20601;-73
2022/11/07 07:28:41;;;;;;;1.40;1.00;;;8.00;96.30;;;;;;4934293;29;20191;-74
2022/11/07 07:31:12;;;;;;;1.10;0.80;;;8.00;96.30;;;;;;4927376;29;20927;-73
2022/11/07 07:33:38;;;;;;;1.00;0.90;;;8.00;96.30;;;;;;4898263;29;20773;-72
2022/11/07 07:36:05;;;;;;;1.37;1.23;;;8.00;96.30;;;;;;4927634;29;20871;-72
2022/11/07 07:38:30;;;;;;;1.10;0.80;;;8.00;96.30;;;;;;4923436;29;20431;-73
2022/11/07 07:40:57;;;;;;;3.17;1.10;;;8.10;96.30;;;;;;4913828;29;20449;-73
2022/11/07 07:43:23;;;;;;;1.40;1.10;;;8.20;96.30;;;;;;4915564;29;20327;-72
2022/11/07 07:45:49;;;;;;;1.50;1.20;;;8.20;96.30;;;;;;4915469;29;20408;-72
2022/11/07 07:48:14;;;;;;;1.37;1.10;;;8.40;96.30;;;;;;4917784;29;20477;-72
2022/11/07 07:50:40;;;;;;;2.30;1.30;;;8.50;96.30;;;;;;4934544;29;20664;-74
2022/11/07 07:53:05;;;;;;;1.60;1.10;;;8.60;96.30;;;;;;4929073;29;20180;-72
2022/11/07 07:55:31;;;;;;;1.80;1.07;;;8.70;96.30;;;;;;4905699;29;20226;-71
2022/11/07 07:57:56;;;;;;;1.77;1.30;;;8.80;96.30;;;;;;4923027;29;20192;-72
2022/11/07 08:00:22;;;;;;;4.97;1.47;;;8.90;96.30;;;;;;4929391;29;20188;-72
2022/11/07 08:02:47;;;;;;;2.47;2.07;;;9.00;96.30;;;;;;4923414;29;20267;-72
2022/11/07 08:05:14;;;;;;;3.23;1.20;;;9.30;96.30;;;;;;4928383;29;20188;-72
2022/11/07 08:07:48;;;;;;;1.30;1.10;;;9.30;96.30;;;;;;4920244;29;20200;-72
2022/11/07 08:10:14;;;;;;;3.50;1.20;;;9.30;96.30;;;;;;4937416;29;20438;-72
2022/11/07 08:12:47;;;;;;;1.40;1.17;;;9.20;96.30;;;;;;4916162;29;20424;-71
2022/11/07 08:15:14;;;;;;;2.10;1.30;;;9.10;96.30;;;;;;4918851;29;20412;-73
2022/11/07 08:17:40;;;;;;;5.23;1.10;;;9.10;96.30;;;;;;4918253;29;20811;-72
2022/11/07 08:20:10;;;;;;;2.07;1.20;;;9.10;96.30;;;;;;4918574;29;20935;-73
2022/11/07 08:22:37;;;;;;;2.87;1.43;;;9.00;96.30;;;;;;4918432;29;20180;-72
2022/11/07 08:25:03;;;;;;;3.00;1.33;;;9.00;96.30;;;;;;4920383;29;20802;-73
2022/11/07 08:27:29;;;;;;;2.17;1.50;;;9.10;96.30;;;;;;4917704;29;20470;-71
2022/11/07 08:29:54;;;;;;;3.47;1.27;;;9.30;96.30;;;;;;4922388;29;20424;-72
2022/11/07 08:32:20;;;;;;;2.50;1.60;;;9.40;96.30;;;;;;4920653;29;20219;-72
2022/11/07 08:34:45;;;;;;;5.13;1.30;;;9.50;96.30;;;;;;4921418;29;20211;-73
2022/11/07 08:37:11;;;;;;;2.93;1.13;;;9.70;96.30;;;;;;4928941;29;20263;-71
2022/11/07 08:39:36;;;;;;;2.80;1.17;;;9.70;96.30;;;;;;4919691;29;20188;-72
2022/11/07 08:42:02;;;;;;;4.60;1.57;;;9.70;96.30;;;;;;4904424;29;20672;-72
2022/11/07 08:44:27;;;;;;;3.43;1.50;;;9.60;96.30;;;;;;4913549;29;20216;-72
2022/11/07 08:46:53;;;;;;;2.00;1.03;;;9.70;96.30;;;;;;4910451;29;20784;-73
2022/11/07 08:49:18;;;;;;;1.83;1.20;;;9.80;96.30;;;;;;4916263;29;20275;-73
2022/11/07 08:51:44;;;;;;;4.80;1.60;;;10.00;96.30;;;;;;4917379;29;20252;-73
2022/11/07 08:54:11;;;;;;;3.80;1.73;;;10.10;96.30;;;;;;4918085;29;20456;-73
2022/11/07 08:56:36;;;;;;;2.63;1.20;;;10.30;96.30;;;;;;4917537;29;20260;-73
2022/11/07 08:59:02;;;;;;;3.13;1.30;;;10.30;96.30;;;;;;4919727;29;20423;-73
2022/11/07 09:01:28;;;;;;;4.17;1.37;;;10.30;96.30;;;;;;4923275;29;20906;-73
2022/11/07 09:03:53;;;;;;;2.40;1.53;;;10.40;96.30;;;;;;4921948;29;20712;-73
2022/11/07 09:06:19;;;;;;;4.30;1.23;;;10.40;96.30;;;;;;4924212;29;20232;-73
2022/11/07 09:08:44;;;;;;;1.97;1.13;;;10.60;96.30;;;;;;4916926;29;20659;-73
2022/11/07 09:11:14;;;;;;;3.03;1.30;;;10.70;96.30;;;;;;4916067;29;20215;-73
2022/11/07 09:13:39;;;;;;;1.10;0.80;;;10.80;96.30;;;;;;4935929;29;20173;-73
2022/11/07 09:16:05;;;;;;;3.27;1.13;;;10.90;96.30;;;;;;4926928;29;20515;-72
2022/11/07 09:18:31;;;;;;;3.23;1.23;;;10.90;96.30;;;;;;4934678;29;20188;-72
2022/11/07 09:20:57;;;;;;;2.80;1.10;;;11.00;96.30;;;;;;4936307;29;20263;-73
2022/11/07 09:23:24;;;;;;;3.10;1.20;;;11.10;96.30;;;;;;4936468;29;20416;-73
2022/11/07 09:25:49;;;;;;;4.57;1.83;;;11.20;96.30;;;;;;4936335;29;20415;-73
2022/11/07 09:28:15;;;;;;;4.00;1.30;;;11.30;96.30;;;;;;4935874;29;20463;-73
2022/11/07 09:30:41;;;;;;;1.80;1.20;;;11.40;96.30;;;;;;4936354;29;20191;-73
2022/11/07 09:33:06;;;;;;;6.30;1.13;;;11.50;96.30;;;;;;4895579;29;20429;-73
2022/11/07 09:35:32;;;;;;;1.77;1.10;;;11.60;96.30;;;;;;4920271;29;20187;-71
2022/11/07 09:37:58;;;;;;;9.23;1.23;;;11.60;96.30;;;;;;4935621;29;20182;-72
2022/11/07 09:40:45;;;;;;;3.30;1.13;;;11.70;96.30;;;;;;4935949;29;20184;-71
2022/11/07 09:43:40;;;;;;;3.33;0.87;;;11.50;96.30;;;;;;4936126;29;20172;-71
2022/11/07 09:46:23;;;;;;;5.03;1.23;;;11.40;96.30;;;;;;4936001;29;20403;-72
2022/11/07 09:48:58;;;;;;;6.27;1.00;;;11.70;96.30;;;;;;4924520;29;20499;-72
2022/11/07 09:51:34;;;;;;;7.10;1.47;;;11.90;96.30;;;;;;4916920;29;20424;-71
2022/11/07 09:54:04;;;;;;;2.80;1.13;;;11.70;96.30;;;;;;4916977;29;20404;-72
2022/11/07 09:56:32;;;;;;;5.33;1.27;;;11.40;96.30;;;;;;4927914;29;20431;-72
2022/11/07 09:59:03;;;;;;;3.87;1.70;;;11.40;96.30;;;;;;4919105;29;20508;-72
2022/11/07 10:01:31;;;;;;;4.53;1.30;;;11.50;96.30;;;;;;4916723;29;20440;-72
2022/11/07 10:03:57;;;;;;;5.30;1.50;;;11.60;96.30;;;;;;4916774;29;20412;-72
2022/11/07 10:06:28;;;;;;;4.77;1.23;;;12.00;96.30;;;;;;4916946;29;20898;-72
2022/11/07 10:09:21;;;;;;;2.50;1.00;;;12.50;96.30;;;;;;4915956;29;20464;-72
2022/11/07 10:12:17;;;;;;;1.93;1.33;;;13.20;96.30;;;;;;4916584;29;20440;-72
2022/11/07 10:15:02;;;;;;;2.07;0.90;;;13.80;96.30;;;;;;4916447;29;20416;-73
2022/11/07 10:18:12;;;;;;;3.00;1.33;;;13.30;96.30;;;;;;4903851;29;20432;-72
2022/11/07 10:20:47;;;;;;;5.10;1.37;;;13.20;96.30;;;;;;4917687;29;20440;-72
2022/11/07 10:23:48;;;;;;;4.70;1.17;;;12.60;96.30;;;;;;4908494;29;20419;-72
2022/11/07 10:26:18;;;;;;;3.17;1.27;;;12.50;96.30;;;;;;4838248;29;20439;-73
2022/11/07 10:29:10;;;;;;;3.90;1.07;;;12.30;96.30;;;;;;4900178;29;20467;-73
2022/11/07 10:31:41;;;;;;;2.07;1.20;;;12.00;96.30;;;;;;4915181;29;20451;-72
2022/11/07 10:34:46;;;;;;;5.57;1.40;;;12.00;96.30;;;;;;4909743;29;20436;-72
2022/11/07 10:37:11;;;;;;;3.37;1.53;;;12.30;96.30;;;;;;4886644;29;20968;-72
2022/11/07 10:39:37;;;;;;;1.67;0.90;;;12.40;96.30;;;;;;4909925;29;20428;-72
2022/11/07 10:42:34;;;;;;;2.50;1.17;;;12.70;96.30;;;;;;4911662;29;20204;-73
2022/11/07 10:44:59;;;;;;;5.60;1.43;;;12.90;96.30;;;;;;4894194;29;20210;-73
2022/11/07 10:47:26;;;;;;;2.50;1.00;;;13.20;96.30;;;;;;4889912;29;20433;-73
2022/11/07 10:50:01;;;;;;;3.40;1.30;;;13.50;96.30;;;;;;4913470;29;20627;-72
2022/11/07 10:52:28;;;;;;;4.67;0.93;;;13.90;96.30;;;;;;4906179;29;20963;-73
2022/11/07 10:55:14;;;;;;;4.40;1.17;;;14.30;96.30;;;;;;4913144;29;20443;-73
2022/11/07 10:57:42;;;;;;;3.53;1.07;;;14.60;96.30;;;;;;4911633;29;20459;-73
2022/11/07 11:00:26;;;;;;;2.83;0.93;;;13.90;96.30;;;;;;4913620;29;20917;-74
2022/11/07 11:02:53;;;;;;;5.80;1.20;;;13.40;96.30;;;;;;4912391;29;20409;-72
2022/11/07 11:05:31;;;;;;;4.97;0.97;;;12.90;96.30;;;;;;4913110;29;20428;-73
2022/11/07 11:08:20;;;;;;;4.50;1.00;;;12.50;96.30;;;;;;4906857;29;20575;-74
2022/11/07 11:10:46;;;;;;;2.87;1.27;;;12.50;96.30;;;;;;4851985;29;20460;-72
2022/11/07 11:13:33;;;;;;;3.83;1.20;;;12.30;96.30;;;;;;4908686;29;20448;-72
2022/11/07 11:16:12;;;;;;;3.40;1.30;;;12.30;96.30;;;;;;4915240;29;20413;-72
2022/11/07 11:18:46;;;;;;;3.53;1.10;;;12.30;96.30;;;;;;4913342;29;20439;-75
2022/11/07 11:21:12;;;;;;;4.80;1.47;;;12.40;96.30;;;;;;5169535;23;20482;-72
2022/11/07 11:23:42;;;;;;;7.27;1.53;;;12.50;96.30;;;;;;4908053;29;20457;-75
2022/11/07 11:26:19;;;;;;;4.20;1.00;;;12.60;96.30;;;;;;4909558;29;20180;-75
2022/11/07 11:28:50;;;;;;;2.97;1.23;;;13.00;96.30;;;;;;4906129;29;20994;-72
2022/11/07 11:41:52;;;;;;;4.60;1.10;;;12.70;96.30;;;;;;4930149;23;20486;-74
2022/11/07 11:44:23;;;;;;;3.33;1.03;;;12.80;96.30;;;;;;4912488;29;20416;-73
2022/11/07 11:46:58;;;;;;;3.43;1.07;;;12.70;96.30;;;;;;4915969;29;20970;-74
2022/11/07 11:49:42;;;;;;;8.77;1.63;;;12.80;96.30;;;;;;4915388;29;20466;-73
2022/11/07 11:52:15;;;;;;;2.60;1.10;;;12.70;96.30;;;;;;4915899;29;20486;-74
2022/11/07 11:54:42;;;;;;;8.93;1.23;;;12.60;96.30;;;;;;4913104;29;20416;-73
2022/11/07 11:57:20;;;;;;;4.00;1.07;;;12.60;96.30;;;;;;4914646;29;20814;-74
2022/11/07 11:59:52;;;;;;;2.60;1.03;;;12.70;96.30;;;;;;4915874;29;20400;-74
2022/11/07 12:02:43;;;;;;;3.53;1.13;;;12.60;96.30;;;;;;4916000;29;20428;-74
2022/11/07 12:05:19;;;;;;;3.73;1.00;;;12.70;96.30;;;;;;4915469;29;20416;-75
2022/11/07 12:08:02;;;;;;;1.27;0.83;;;12.70;96.30;;;;;;4915086;29;20451;-73
2022/11/07 12:10:39;;;;;;;3.20;1.20;;;12.80;96.30;;;;;;4915291;29;20428;-74
2022/11/07 12:13:18;;;;;;;2.43;1.10;;;12.80;96.30;;;;;;4916687;29;20502;-73
2022/11/07 12:16:15;;;;;;;4.53;1.40;;;12.80;96.30;;;;;;4912867;29;20412;-73
2022/11/07 12:19:13;;;;;;;2.33;1.10;;;12.60;96.30;;;;;;4912887;29;20424;-73
2022/11/07 12:21:49;;;;;;;3.17;1.10;;;12.50;96.30;;;;;;4898743;29;21010;-73
2022/11/07 12:24:24;;;;;;;4.80;1.13;;;12.30;96.30;;;;;;4915466;29;20420;-73
2022/11/07 12:26:55;;;;;;;2.23;0.93;;;12.00;96.30;;;;;;4915204;29;20426;-74
2022/11/07 12:29:26;;;;;;;2.13;0.90;;;12.00;96.30;;;;;;4914916;29;20463;-73
2022/11/07 12:32:06;;;;;;;1.80;1.07;;;12.00;96.30;;;;;;4913540;29;21019;-73
2022/11/07 12:34:51;;;;;;;2.00;0.87;;;12.00;96.30;;;;;;4916138;29;20905;-75
2022/11/07 12:37:51;;;;;;;2.53;1.60;;;12.10;96.30;;;;;;4912103;29;20904;-74
2022/11/07 12:40:32;;;;;;;9.23;1.00;;;12.30;96.30;;;;;;4912735;29;20880;-74
2022/11/07 12:43:25;;;;;;;1.60;1.10;;;12.50;96.30;;;;;;4915645;29;20431;-74
2022/11/07 12:46:21;;;;;;;2.10;0.90;;;12.40;96.30;;;;;;4912520;29;20439;-73
2022/11/07 12:49:21;;;;;;;3.20;1.10;;;12.30;96.30;;;;;;4914684;29;20475;-73
2022/11/07 12:52:14;;;;;;;5.10;1.07;;;12.50;96.30;;;;;;4912962;29;21134;-74
2022/11/07 12:55:20;;;;;;;6.37;1.30;;;12.60;96.30;;;;;;4915023;29;20473;-74
2022/11/07 12:57:48;;;;;;;2.43;1.10;;;12.70;96.30;;;;;;4867257;29;20448;-74
2022/11/07 13:00:22;;;;;;;2.37;0.80;;;12.70;96.30;;;;;;4914646;29;20427;-75
2022/11/07 13:03:19;;;;;;;3.30;1.13;;;12.70;96.30;;;;;;4914456;29;20507;-75
2022/11/07 13:05:51;;;;;;;3.20;1.00;;;12.70;96.30;;;;;;4912069;29;20416;-75
2022/11/07 13:08:24;;;;;;;3.47;1.10;;;12.50;96.30;;;;;;4914270;29;20456;-75
2022/11/07 13:11:02;;;;;;;2.90;1.00;;;12.30;96.30;;;;;;4918999;29;20799;-75
2022/11/07 13:14:00;;;;;;;3.30;1.10;;;12.40;96.30;;;;;;4915985;29;20886;-75
2022/11/07 13:16:28;;;;;;;3.53;1.00;;;12.40;96.30;;;;;;4884213;29;20460;-75
2022/11/07 13:18:54;;;;;;;2.13;0.90;;;12.50;96.30;;;;;;4914289;29;20867;-75
2022/11/07 13:21:20;;;;;;;7.90;1.20;;;12.60;96.30;;;;;;4914387;29;20443;-75
2022/11/07 13:23:47;;;;;;;1.50;0.73;;;12.60;96.30;;;;;;4914910;29;20519;-75
2022/11/07 13:26:13;;;;;;;2.37;1.10;;;12.70;96.30;;;;;;4915000;29;20176;-75
2022/11/07 13:28:54;;;;;;;3.63;1.00;;;12.50;96.30;;;;;;4913752;29;20559;-75
2022/11/07 13:32:03;;;;;;;2.43;1.00;;;12.50;96.30;;;;;;4897846;29;20440;-75
2022/11/07 13:34:28;;;;;;;1.37;0.83;;;12.40;96.30;;;;;;4900218;29;20432;-75
2022/11/07 13:37:00;;;;;;;9.60;2.03;;;12.10;96.30;;;;;;4913526;29;20416;-74
2022/11/07 13:39:28;;;;;;;5.83;1.30;;;12.10;96.30;;;;;;4914074;29;20188;-73
2022/11/07 13:41:54;;;;;;;2.27;0.87;;;12.10;96.30;;;;;;4914132;29;20466;-74
2022/11/07 13:44:25;;;;;;;2.50;1.20;;;12.10;96.30;;;;;;4913130;29;20787;-73
2022/11/07 13:47:03;;;;;;;3.47;1.10;;;12.20;96.30;;;;;;4895291;29;20482;-74
2022/11/07 13:49:37;;;;;;;3.70;1.00;;;12.10;96.30;;;;;;4912419;29;20467;-73
2022/11/07 13:52:45;;;;;;;1.80;0.93;;;12.10;96.30;;;;;;4914515;29;20792;-75
2022/11/07 13:55:16;;;;;;;2.20;1.20;;;12.10;96.30;;;;;;4912604;29;20455;-73
2022/11/07 13:58:05;;;;;;;2.73;1.17;;;12.10;96.30;;;;;;4913271;29;20492;-74
2022/11/07 14:00:33;;;;;;;6.87;1.03;;;12.00;96.30;;;;;;4913760;29;21225;-74
2022/11/07 14:02:59;;;;;;;2.70;1.10;;;12.00;96.30;;;;;;4913477;29;21136;-75
2022/11/07 14:05:28;;;;;;;4.00;1.10;;;11.90;96.30;;;;;;4914090;29;20476;-74
2022/11/07 14:07:59;;;;;;;2.17;0.83;;;11.80;96.30;;;;;;4913302;29;20295;-74
2022/11/07 14:10:47;;;;;;;2.87;0.87;;;11.80;96.30;;;;;;4895518;29;20505;-72
2022/11/07 14:13:21;;;;;;;5.83;1.40;;;11.70;96.30;;;;;;4915742;29;20413;-73
2022/11/07 14:15:53;;;;;;;7.40;1.10;;;11.70;96.30;;;;;;4915790;29;20428;-73
2022/11/07 14:18:21;;;;;;;3.00;1.10;;;11.80;96.30;;;;;;4914552;29;20916;-74
2022/11/07 14:20:52;;;;;;;3.00;1.87;;;11.80;96.30;;;;;;4911482;29;20444;-73
2022/11/07 14:23:26;;;;;;;1.77;0.90;;;11.70;96.30;;;;;;4908795;29;20419;-73
2022/11/07 14:26:17;;;;;;;3.60;1.10;;;11.80;96.30;;;;;;4935180;29;20415;-73
2022/11/07 14:28:43;;;;;;;1.93;0.87;;;11.80;96.30;;;;;;4923450;29;20477;-72
2022/11/07 14:31:18;;;;;;;6.90;1.63;;;11.80;96.30;;;;;;4915960;29;20878;-75
2022/11/07 14:33:49;;;;;;;4.40;1.30;;;11.80;96.30;;;;;;4916006;29;20187;-72
2022/11/07 14:36:16;;;;;;;2.37;1.20;;;11.80;96.30;;;;;;4915597;29;20412;-74
2022/11/07 14:38:50;;;;;;;2.20;0.90;;;11.80;96.30;;;;;;4898098;29;20432;-74
2022/11/07 14:41:17;;;;;;;8.50;1.53;;;11.80;96.30;;;;;;4899092;29;20975;-74
2022/11/07 14:43:44;;;;;;;6.90;1.20;;;11.70;96.30;;;;;;4915975;29;20784;-73
2022/11/07 14:46:15;;;;;;;4.20;1.43;;;11.60;96.30;;;;;;4916047;29;20409;-74
2022/11/07 14:48:42;;;;;;;3.60;1.30;;;11.50;96.30;;;;;;4915883;29;20470;-73
2022/11/07 14:51:14;;;;;;;3.77;0.87;;;11.40;96.30;;;;;;4899142;29;20452;-74
2022/11/07 14:53:45;;;;;;;2.47;1.20;;;11.30;96.30;;;;;;4916240;29;20932;-74
2022/11/07 14:56:15;;;;;;;2.73;1.77;;;11.20;96.30;;;;;;4916176;29;20412;-74
2022/11/07 14:58:41;;;;;;;2.90;0.90;;;11.10;96.30;;;;;;4898351;29;20423;-74
2022/11/07 15:01:06;;;;;;;2.57;1.00;;;11.00;96.30;;;;;;4915872;29;20445;-74
2022/11/07 15:03:35;;;;;;;4.47;1.07;;;11.00;96.30;;;;;;4914187;29;20180;-74
2022/11/07 15:06:01;;;;;;;3.20;1.10;;;11.00;96.30;;;;;;4913333;29;20195;-74
2022/11/07 15:08:35;;;;;;;4.50;0.97;;;10.90;96.30;;;;;;4897498;29;20471;-73
2022/11/07 15:11:06;;;;;;;4.07;1.27;;;10.80;96.30;;;;;;4915568;29;20462;-73
2022/11/07 15:13:33;;;;;;;8.90;1.47;;;10.60;96.30;;;;;;4915432;29;20411;-73
2022/11/07 15:16:02;;;;;;;5.77;0.93;;;10.60;96.30;;;;;;4915099;29;20425;-73
2022/11/07 15:18:28;;;;;;;8.73;1.37;;;10.60;96.30;;;;;;4914406;29;20847;-73
2022/11/07 15:21:00;;;;;;;3.90;1.60;;;10.50;96.30;;;;;;4915604;29;20435;-73
2022/11/07 15:23:30;;;;;;;3.87;1.90;;;10.30;96.30;;;;;;4915688;29;20847;-73
2022/11/07 15:26:05;;;;;;;3.13;1.57;;;10.30;96.30;;;;;;4898711;29;20420;-74
2022/11/07 15:28:44;;;;;;;1.70;0.93;;;10.20;96.30;;;;;;4898093;29;20467;-74
2022/11/07 15:31:23;;;;;;;5.37;1.30;;;10.10;96.30;;;;;;4915691;29;20904;-74
2022/11/07 15:33:50;;;;;;;6.20;1.30;;;10.00;96.30;;;;;;4915374;29;20408;-74
2022/11/07 15:36:16;;;;;;;3.40;1.20;;;9.90;96.30;;;;;;4915121;29;20790;-74
2022/11/07 15:38:42;;;;;;;2.50;1.07;;;9.80;96.30;;;;;;4897499;29;20462;-73
2022/11/07 15:41:07;;;;;;;5.63;1.93;;;9.80;96.30;;;;;;4914350;29;20531;-73
2022/11/07 15:43:33;;;;;;;3.63;1.50;;;9.70;96.30;;;;;;4933810;29;20991;-73
2022/11/07 15:46:01;;;;;;;2.67;1.43;;;9.60;96.30;;;;;;4934377;29;20210;-73
2022/11/07 15:48:35;;;;;;;10.27;2.87;;;9.70;96.30;;;;;;4933795;29;20577;-73
2022/11/07 15:51:00;;;;;;;7.17;3.27;;;9.60;96.30;;;;;;4896616;29;20481;-73
2022/11/07 15:53:28;;;;;;;4.77;2.53;;;9.70;96.30;;;;;;4902895;29;20416;-73
2022/11/07 15:55:58;;;;;;;3.13;1.37;;;9.70;96.30;;;;;;4915306;29;20630;-73
2022/11/07 15:58:27;;;;;;;7.27;2.03;;;9.80;96.30;;;;;;4914876;29;20504;-73
2022/11/07 16:00:54;;;;;;;2.50;1.60;;;9.90;96.30;;;;;;4914657;29;20436;-73
2022/11/07 16:03:23;;;;;;;5.33;1.70;;;9.90;96.30;;;;;;4915091;29;20427;-74
2022/11/07 16:05:50;;;;;;;2.50;1.23;;;9.90;96.30;;;;;;4915105;29;20419;-73
2022/11/07 16:08:21;;;;;;;4.07;1.40;;;9.90;96.30;;;;;;4897520;29;20468;-73
2022/11/07 16:10:59;;;;;;;4.03;1.40;;;9.80;96.30;;;;;;4915689;29;20432;-73
2022/11/07 16:13:25;;;;;;;6.40;1.50;;;9.80;96.30;;;;;;4901925;29;20490;-73
2022/11/07 16:15:57;;;;;;;5.70;1.23;;;9.90;96.30;;;;;;4898788;29;20526;-73
2022/11/07 16:18:23;;;;;;;4.80;1.80;;;9.90;96.30;;;;;;4916284;29;20288;-73
2022/11/07 16:20:49;;;;;;;2.67;1.20;;;9.90;96.30;;;;;;4916665;29;20976;-73
2022/11/07 16:23:17;;;;;;;5.03;1.10;;;9.90;96.30;;;;;;4916345;29;20551;-72
2022/11/07 16:25:45;;;;;;;3.93;2.23;;;9.90;96.30;;;;;;4916369;29;20937;-73
2022/11/07 16:28:30;;;;;;;5.27;1.73;;;9.90;96.30;;;;;;4915398;29;20459;-73
2022/11/07 16:30:56;;;;;;;4.80;1.60;;;9.90;96.30;;;;;;4918137;29;20456;-73
2022/11/07 16:33:23;;;;;;;3.20;1.10;;;9.90;96.30;;;;;;4916727;29;20440;-73
2022/11/07 16:35:54;;;;;;;12.13;1.77;;;9.90;96.30;;;;;;4916406;29;20415;-73
2022/11/07 16:38:22;;;;;;;3.73;1.40;;;9.90;96.30;;;;;;4917204;29;20479;-72
2022/11/07 16:40:48;;;;;;;3.57;1.20;;;9.90;96.30;;;;;;4917581;29;20456;-71
2022/11/07 16:43:14;;;;;;;2.83;1.50;;;9.90;96.30;;;;;;4874219;29;20823;-71
2022/11/07 16:45:52;;;;;;;2.80;1.57;;;9.80;96.30;;;;;;4917547;29;20645;-71
2022/11/07 16:48:22;;;;;;;3.30;1.07;;;9.80;96.30;;;;;;4917606;29;20542;-72
2022/11/07 16:50:47;;;;;;;4.20;2.63;;;9.70;96.30;;;;;;4918258;29;20432;-72
2022/11/07 16:53:14;;;;;;;7.33;3.43;;;9.70;96.30;;;;;;4918068;29;20413;-73
2022/11/07 16:55:43;;;;;;;3.50;1.13;;;9.60;96.30;;;;;;4913962;29;20275;-72
2022/11/07 16:58:31;;;;;;;7.40;3.07;;;9.40;96.30;;;;;;4920439;29;20447;-74
2022/11/07 17:00:58;;;;;;;7.60;3.53;;;9.40;96.30;;;;;;4918267;29;20440;-72
2022/11/07 17:03:25;;;;;;;5.60;2.13;;;9.30;96.30;;;;;;4917759;29;20444;-74
2022/11/07 17:05:55;;;;;;;5.83;2.37;;;9.30;96.30;;;;;;4915532;29;20420;-74
2022/11/07 17:08:33;;;;;;;3.53;1.70;;;9.50;96.30;;;;;;4922598;29;20516;-74
2022/11/07 17:10:59;;;;;;;2.70;1.83;;;9.50;96.30;;;;;;4916341;29;20444;-72
2022/11/07 17:13:24;;;;;;;2.70;1.93;;;9.50;96.30;;;;;;4916035;29;20427;-71
2022/11/07 17:15:50;;;;;;;2.30;1.57;;;9.70;96.30;;;;;;4924129;29;20541;-73
2022/11/07 17:18:21;;;;;;;2.60;1.40;;;9.70;96.30;;;;;;4918810;29;20180;-72
2022/11/07 17:20:46;;;;;;;3.10;1.50;;;9.70;96.30;;;;;;4914971;29;20443;-72
2022/11/07 17:23:12;;;;;;;5.30;1.93;;;9.60;96.30;;;;;;4915627;29;20833;-72
2022/11/07 17:25:38;;;;;;;3.20;2.57;;;9.60;96.30;;;;;;4914234;29;20724;-72
2022/11/07 17:28:04;;;;;;;5.23;2.87;;;9.60;96.30;;;;;;4915098;29;20462;-72
2022/11/07 17:30:31;;;;;;;15.80;11.00;;;9.70;96.30;;;;;;4907610;29;20184;-72
2022/11/07 17:32:57;;;;;;;8.37;3.87;;;9.70;96.30;;;;;;4924319;29;20931;-72
2022/11/07 17:35:22;;;;;;;4.60;2.20;;;9.80;96.30;;;;;;4934438;29;20416;-71
2022/11/07 17:37:48;;;;;;;4.70;2.20;;;9.70;96.30;;;;;;4917293;29;20200;-73
2022/11/07 17:40:20;;;;;;;4.83;2.17;;;9.70;96.30;;;;;;4922454;29;20605;-70
2022/11/07 17:42:46;;;;;;;5.80;2.30;;;9.80;96.30;;;;;;4914730;29;20192;-72
2022/11/07 17:45:11;;;;;;;3.90;2.17;;;9.80;96.30;;;;;;4914768;29;20436;-73